Norfolk, Virginia
Traffic Map
Current Weather Conditions
Norfolk, Virginia
Clear
Clear

Feels Like: 0°
Wind Chill: Ceiling: Unl
Heat Index: Visibility: 10mi
Dew Point: -10° Wind: 7mph
Humidity: 38% Direction: 250° (WSW)
Pressure: 29.86in Gusts: 0mph
Raw Report DataKORF 102351Z AUTO 25006KT 10SM CLR 03/M10 A2986 RMK AO2 SLP111 T00331100 10056 20033 53019 TSNO
Traffic Incident Summary
Active as of:
Severity:
Category:
InformationThere was an issue retrieving the traffic information for this location. Please try a different location or try again shortly.
Advertisements
Track Severe Weather on mobile